Time;durP1;ratioP1;P1;durP2;ratioP2;P2;SDS_P1;SDS_P2;PMS_P1;PMS_P2;Temp;Humidity;BMP_temperature;BMP_pressure;BME280_temperature;BME280_humidity;BME280_pressure;Samples;Min_cycle;Max_cycle;Signal;HPM_P1;HPM_P2
2021/11/07 00:00:10;;;;;;;;;;;;;;;22.31;52.37;100388.31;2066958;28;1052;-57
2021/11/07 00:02:38;;;;;;;;;;;;;;;22.29;51.32;100387.50;2067160;28;706;-56
2021/11/07 00:04:42;;;;;;;;;;;;;;;22.26;51.84;100384.94;2067012;28;831;-56
2021/11/07 00:05:48;;;;;;;;;;;;;;;22.25;51.67;100373.31;2066777;28;846;-57
2021/11/07 00:11:36;;;;;;;;;;;;;;;22.27;50.73;100371.41;2066883;28;794;-56
2021/11/07 00:12:42;;;;;;;;;;;;;;;22.18;53.03;100363.75;2067024;28;1046;-57
2021/11/07 00:13:43;;;;;;;;;;;;;;;22.19;53.31;100368.19;2066026;28;938;-56
2021/11/07 00:14:47;;;;;;;;;;;;;;;22.23;52.26;100361.72;2066887;28;1914;-57
2021/11/07 00:15:47;;;;;;;;;;;;;;;22.22;50.72;100362.66;2066816;28;1054;-57
2021/11/07 00:16:48;;;;;;;;;;;;;;;22.22;50.87;100362.66;2066976;28;1100;-57
2021/11/07 00:17:53;;;;;;;;;;;;;;;22.18;50.93;100350.25;2066899;28;978;-56
2021/11/07 00:19:33;;;;;;;;;;;;;;;22.15;51.56;100353.97;2066814;28;890;-57
2021/11/07 00:20:28;;;;;;;;;;;;;;;22.17;50.90;100346.66;2065826;28;1418;-56
2021/11/07 00:21:30;;;;;;;;;;;;;;;22.19;51.03;100339.38;2066595;28;934;-57
2021/11/07 00:23:56;;;;;;;;;;;;;;;22.15;50.66;100339.63;2066905;28;1025;-57
2021/11/07 00:25:04;;;;;;;;;;;;;;;22.14;51.32;100330.63;2066904;28;981;-57
2021/11/07 00:27:19;;;;;;;;;;;;;;;22.16;50.36;100327.88;2066758;28;735;-57
2021/11/07 00:28:30;;;;;;;;;;;;;;;22.15;50.47;100329.69;2066910;28;926;-58
2021/11/07 00:29:38;;;;;;;;;;;;;;;22.11;51.94;100320.00;2066805;28;918;-56
2021/11/07 00:32:22;;;;;;;;;;;;;;;22.11;50.68;100317.28;2050475;29;1156;-57
2021/11/07 00:33:41;;;;;;;;;;;;;;;22.10;51.25;100320.06;2050765;29;851;-57
2021/11/07 00:37:34;;;;;;;;;;;;;;;22.06;51.09;100314.81;2034809;29;1120;-57
2021/11/07 00:39:00;;;;;;;;;;;;;;;22.01;50.88;100311.47;2042856;29;878;-57
2021/11/07 00:40:08;;;;;;;;;;;;;;;22.08;50.42;100306.66;2042309;29;1280;-57
2021/11/07 00:41:20;;;;;;;;;;;;;;;22.02;50.99;100302.44;2042877;29;799;-57
2021/11/07 00:42:27;;;;;;;;;;;;;;;22.02;49.73;100297.03;2042834;29;847;-57
2021/11/07 00:43:40;;;;;;;;;;;;;;;22.04;50.85;100300.53;2042718;29;1127;-57
2021/11/07 00:44:50;;;;;;;;;;;;;;;22.03;51.00;100300.63;2042731;29;869;-56
2021/11/07 00:46:05;;;;;;;;;;;;;;;22.01;50.49;100295.28;2047028;29;933;-57
2021/11/07 00:49:21;;;;;;;;;;;;;;;22.05;50.39;100296.03;2042577;29;1328;-57
2021/11/07 00:50:04;;;;;;;;;;;;;;;21.92;52.84;100284.94;2045026;29;1291;-57
2021/11/07 00:51:15;;;;;;;;;;;;;;;21.90;51.09;100281.44;2042746;29;804;-57
2021/11/07 00:54:29;;;;;;;;;;;;;;;21.98;51.32;100279.25;2042641;29;1966;-58
2021/11/07 00:55:37;;;;;;;;;;;;;;;22.01;49.92;100279.13;2042463;29;822;-57
2021/11/07 01:00:13;;;;;;;;;;;;;;;21.94;51.42;100274.09;2050555;29;989;-57
2021/11/07 01:01:15;;;;;;;;;;;;;;;21.97;52.64;100272.13;2050487;29;835;-57
2021/11/07 01:02:18;;;;;;;;;;;;;;;21.94;52.39;100266.88;2050479;29;850;-56
2021/11/07 01:03:20;;;;;;;;;;;;;;;21.92;52.08;100268.75;2050478;29;1135;-58
2021/11/07 01:04:21;;;;;;;;;;;;;;;21.91;51.95;100265.22;2050153;29;804;-56
2021/11/07 01:05:23;;;;;;;;;;;;;;;21.95;50.31;100257.81;2050617;29;902;-57
2021/11/07 01:06:23;;;;;;;;;;;;;;;21.87;50.75;100255.50;2050523;29;910;-57
2021/11/07 01:07:23;;;;;;;;;;;;;;;21.90;51.65;100254.47;2050102;29;858;-57
2021/11/07 01:08:24;;;;;;;;;;;;;;;21.86;51.24;100256.47;2050452;29;877;-57
2021/11/07 01:09:24;;;;;;;;;;;;;;;21.91;50.71;100256.22;2057990;28;1005;-57
2021/11/07 01:10:26;;;;;;;;;;;;;;;21.86;50.75;100236.69;2074297;28;981;-57
2021/11/07 01:11:26;;;;;;;;;;;;;;;21.91;50.74;100240.94;2074538;28;1292;-56
2021/11/07 01:12:27;;;;;;;;;;;;;;;21.83;51.62;100240.44;2074546;28;969;-57
2021/11/07 01:13:28;;;;;;;;;;;;;;;21.86;52.00;100234.91;2074540;28;830;-57
2021/11/07 01:14:28;;;;;;;;;;;;;;;21.91;51.19;100226.56;2074476;28;1918;-57
2021/11/07 01:15:29;;;;;;;;;;;;;;;21.89;51.96;100231.16;2074503;28;1060;-57
2021/11/07 01:16:29;;;;;;;;;;;;;;;21.83;50.16;100221.56;2074561;28;811;-57
2021/11/07 01:17:29;;;;;;;;;;;;;;;21.84;51.34;100227.81;2074644;28;1112;-56
2021/11/07 01:18:30;;;;;;;;;;;;;;;21.80;52.28;100227.09;2074337;28;933;-57
2021/11/07 01:19:30;;;;;;;;;;;;;;;21.84;51.61;100226.00;2074493;28;1093;-57
2021/11/07 01:20:31;;;;;;;;;;;;;;;21.80;50.62;100226.22;2074583;28;838;-57
2021/11/07 01:21:35;;;;;;;;;;;;;;;21.82;52.01;100224.31;2074486;28;870;-57
2021/11/07 01:22:51;;;;;;;;;;;;;;;21.82;50.92;100224.31;2074495;28;1092;-57
2021/11/07 01:23:58;;;;;;;;;;;;;;;21.73;51.87;100222.94;2074511;28;1274;-57
2021/11/07 01:25:01;;;;;;;;;;;;;;;21.77;50.94;100224.53;2074359;28;813;-58
2021/11/07 01:26:07;;;;;;;;;;;;;;;21.85;50.63;100216.06;2067682;28;1002;-58
2021/11/07 01:27:16;;;;;;;;;;;;;;;21.83;51.30;100217.97;2066382;28;870;-57
2021/11/07 01:28:18;;;;;;;;;;;;;;;21.79;50.88;100217.25;2066370;28;931;-57
2021/11/07 01:29:24;;;;;;;;;;;;;;;21.82;51.14;100221.63;2066331;28;855;-57
2021/11/07 01:30:27;;;;;;;;;;;;;;;21.83;50.90;100204.50;2066363;28;815;-57
2021/11/07 01:31:28;;;;;;;;;;;;;;;21.89;50.55;100210.47;2066103;28;890;-57
2021/11/07 01:32:34;;;;;;;;;;;;;;;21.85;50.91;100200.78;2066229;28;895;-56
2021/11/07 01:33:35;;;;;;;;;;;;;;;21.84;50.62;100196.34;2066329;28;918;-56
2021/11/07 01:37:42;;;;;;;;;;;;;;;21.84;51.85;100190.06;2084390;28;1228;-57
2021/11/07 01:39:50;;;;;;;;;;;;;;;21.73;51.62;100187.91;2091746;28;985;-57
2021/11/07 01:42:58;;;;;;;;;;;;;;;21.77;50.79;100178.72;2091366;28;760;-58
2021/11/07 01:43:59;;;;;;;;;;;;;;;21.75;52.02;100181.50;2091670;28;831;-58
2021/11/07 01:45:06;;;;;;;;;;;;;;;21.73;50.95;100177.13;2091673;28;799;-57
2021/11/07 01:46:14;;;;;;;;;;;;;;;21.72;51.25;100176.25;2091759;28;846;-58
2021/11/07 01:47:15;;;;;;;;;;;;;;;21.73;52.70;100171.72;2091707;28;890;-56
2021/11/07 01:48:18;;;;;;;;;;;;;;;21.70;51.22;100164.69;2091694;28;1082;-58
2021/11/07 01:49:22;;;;;;;;;;;;;;;21.75;52.75;100164.44;2091649;28;839;-58
2021/11/07 01:50:22;;;;;;;;;;;;;;;21.77;51.49;100165.25;2091594;28;834;-59
2021/11/07 01:51:24;;;;;;;;;;;;;;;21.83;51.00;100161.34;2091601;28;917;-59
2021/11/07 01:52:27;;;;;;;;;;;;;;;21.82;50.93;100159.59;2091638;28;819;-59
2021/11/07 01:53:34;;;;;;;;;;;;;;;21.79;52.19;100157.06;2091392;28;893;-58
2021/11/07 01:54:57;;;;;;;;;;;;;;;21.84;50.69;100142.41;2091652;28;1953;-58
2021/11/07 01:55:59;;;;;;;;;;;;;;;21.82;51.89;100141.63;2091477;28;921;-58
2021/11/07 01:56:59;;;;;;;;;;;;;;;21.72;52.56;100143.91;2091236;28;1350;-59
2021/11/07 01:57:59;;;;;;;;;;;;;;;21.79;50.41;100141.78;2091628;28;863;-58
2021/11/07 01:58:59;;;;;;;;;;;;;;;21.84;50.61;100133.44;2091507;28;870;-60
2021/11/07 02:00:05;;;;;;;;;;;;;;;21.83;51.74;100139.78;2091576;28;866;-60
2021/11/07 02:01:07;;;;;;;;;;;;;;;21.77;51.33;100139.16;2091678;28;889;-59
2021/11/07 02:02:12;;;;;;;;;;;;;;;21.74;51.99;100142.03;2091412;28;1862;-58
2021/11/07 02:03:13;;;;;;;;;;;;;;;21.74;51.32;100136.63;2091615;28;803;-59
2021/11/07 02:04:13;;;;;;;;;;;;;;;21.68;51.52;100136.03;2091377;28;784;-58
2021/11/07 02:05:13;;;;;;;;;;;;;;;21.71;51.92;100134.09;2091546;28;1051;-58
2021/11/07 02:06:13;;;;;;;;;;;;;;;21.71;53.26;100123.28;2091585;28;764;-58
2021/11/07 02:07:14;;;;;;;;;;;;;;;21.71;51.43;100126.00;2091623;28;825;-58
2021/11/07 02:08:14;;;;;;;;;;;;;;;21.73;51.92;100124.09;2091464;28;851;-58
2021/11/07 02:09:15;;;;;;;;;;;;;;;21.73;51.59;100116.00;2091411;28;904;-58
2021/11/07 02:10:16;;;;;;;;;;;;;;;21.76;51.68;100117.66;2091457;28;1198;-59
2021/11/07 02:11:16;;;;;;;;;;;;;;;21.77;49.97;100114.91;2091501;28;1032;-57
2021/11/07 02:12:16;;;;;;;;;;;;;;;21.75;50.86;100114.13;2091394;28;847;-59
2021/11/07 02:13:17;;;;;;;;;;;;;;;21.74;50.36;100114.16;2091430;28;1488;-58
2021/11/07 02:14:17;;;;;;;;;;;;;;;21.77;51.02;100108.63;2091408;28;1910;-58
2021/11/07 02:15:19;;;;;;;;;;;;;;;21.71;51.74;100108.94;2091173;28;980;-58
2021/11/07 02:16:21;;;;;;;;;;;;;;;21.75;51.14;100106.03;2091461;28;822;-59
2021/11/07 02:17:21;;;;;;;;;;;;;;;21.76;51.87;100106.88;2091534;28;854;-57
2021/11/07 02:18:22;;;;;;;;;;;;;;;21.75;52.81;100108.72;2091276;28;787;-59
2021/11/07 02:19:23;;;;;;;;;;;;;;;21.73;51.67;100102.53;2091490;28;858;-58
2021/11/07 02:20:30;;;;;;;;;;;;;;;21.75;53.15;100097.94;2091514;28;973;-57
2021/11/07 02:21:31;;;;;;;;;;;;;;;21.72;52.27;100103.47;2091426;28;867;-58
2021/11/07 02:22:31;;;;;;;;;;;;;;;21.72;50.91;100103.47;2091522;28;815;-58
2021/11/07 02:23:32;;;;;;;;;;;;;;;21.77;51.86;100097.84;2091391;28;1028;-58
2021/11/07 02:24:34;;;;;;;;;;;;;;;21.69;52.02;100102.75;2091435;28;984;-57
2021/11/07 02:25:35;;;;;;;;;;;;;;;21.62;51.70;100094.09;2091476;28;846;-58
2021/11/07 02:26:35;;;;;;;;;;;;;;;21.68;51.56;100093.78;2091439;28;636;-57
2021/11/07 02:27:36;;;;;;;;;;;;;;;21.69;50.70;100090.16;2091494;28;1368;-57
2021/11/07 02:28:38;;;;;;;;;;;;;;;21.73;50.70;100085.47;2091475;28;775;-58
2021/11/07 02:29:38;;;;;;;;;;;;;;;21.70;51.16;100088.31;2091438;28;783;-57
2021/11/07 02:30:39;;;;;;;;;;;;;;;21.72;51.64;100087.31;2091375;28;862;-58
2021/11/07 02:31:39;;;;;;;;;;;;;;;21.68;52.41;100084.81;2091469;28;818;-57
2021/11/07 02:32:39;;;;;;;;;;;;;;;21.72;49.86;100084.63;2091441;28;1043;-58
2021/11/07 02:33:40;;;;;;;;;;;;;;;21.65;51.08;100082.28;2091284;28;885;-58
2021/11/07 02:34:41;;;;;;;;;;;;;;;21.67;51.94;100083.06;2091375;28;1891;-58
2021/11/07 02:35:41;;;;;;;;;;;;;;;21.67;52.88;100078.56;2091424;28;1380;-57
2021/11/07 02:36:43;;;;;;;;;;;;;;;21.69;51.97;100073.97;2091660;28;799;-58
2021/11/07 02:37:44;;;;;;;;;;;;;;;21.70;51.75;100074.84;2091110;28;1476;-58
2021/11/07 02:38:45;;;;;;;;;;;;;;;21.68;51.40;100068.66;2084588;28;799;-57
2021/11/07 02:39:45;;;;;;;;;;;;;;;21.71;50.74;100065.81;2084851;28;984;-58
2021/11/07 02:40:46;;;;;;;;;;;;;;;21.70;51.42;100064.94;2084882;28;778;-58
2021/11/07 02:41:46;;;;;;;;;;;;;;;21.64;52.20;100067.06;2084632;28;1204;-57
2021/11/07 02:42:48;;;;;;;;;;;;;;;21.66;50.36;100052.56;2084804;28;985;-57
2021/11/07 02:43:50;;;;;;;;;;;;;;;21.62;51.75;100054.53;2084890;28;819;-58
2021/11/07 02:44:50;;;;;;;;;;;;;;;21.66;52.17;100054.38;2084594;28;961;-57
2021/11/07 02:45:50;;;;;;;;;;;;;;;21.60;52.90;100048.31;2084817;28;788;-57
2021/11/07 02:46:50;;;;;;;;;;;;;;;21.67;51.96;100042.66;2084787;28;855;-58
2021/11/07 02:47:51;;;;;;;;;;;;;;;21.62;53.56;100045.59;2084566;28;1362;-57
2021/11/07 02:48:56;;;;;;;;;;;;;;;21.66;52.01;100049.88;2084821;28;894;-57
2021/11/07 02:49:56;;;;;;;;;;;;;;;21.65;50.91;100050.81;2084864;28;977;-57
2021/11/07 02:50:56;;;;;;;;;;;;;;;21.64;52.29;100046.38;2084807;28;1035;-58
2021/11/07 02:51:57;;;;;;;;;;;;;;;21.64;52.20;100038.31;2084708;28;787;-57
2021/11/07 02:52:57;;;;;;;;;;;;;;;21.66;52.05;100039.09;2084532;28;854;-58
2021/11/07 02:54:02;;;;;;;;;;;;;;;21.64;51.22;100030.22;2084776;28;1875;-58
2021/11/07 02:55:02;;;;;;;;;;;;;;;21.59;52.20;100038.47;2084802;28;899;-57
2021/11/07 02:56:03;;;;;;;;;;;;;;;21.69;51.24;100028.16;2084624;28;922;-57
2021/11/07 02:57:06;;;;;;;;;;;;;;;21.65;51.11;100029.25;2084598;28;1173;-58
2021/11/07 02:58:06;;;;;;;;;;;;;;;21.67;52.42;100024.66;2084670;28;852;-58
2021/11/07 02:59:08;;;;;;;;;;;;;;;21.67;50.46;100024.66;2084751;28;851;-57
2021/11/07 03:00:10;;;;;;;;;;;;;;;21.68;51.45;100022.84;2084700;28;814;-58
2021/11/07 03:01:10;;;;;;;;;;;;;;;21.62;51.11;100021.34;2084659;28;915;-57
2021/11/07 03:02:11;;;;;;;;;;;;;;;21.66;52.09;100017.53;2084753;28;918;-57
2021/11/07 03:03:11;;;;;;;;;;;;;;;21.66;51.56;100013.94;2090466;28;1187;-58
2021/11/07 03:04:12;;;;;;;;;;;;;;;21.64;52.51;100016.75;2092101;28;1172;-58
2021/11/07 03:05:12;;;;;;;;;;;;;;;21.66;51.69;100013.94;2092313;28;851;-56
2021/11/07 03:06:12;;;;;;;;;;;;;;;21.59;52.14;100016.06;2092907;28;864;-58
2021/11/07 03:07:13;;;;;;;;;;;;;;;21.65;52.38;100013.09;2092584;28;985;-57
2021/11/07 03:08:13;;;;;;;;;;;;;;;21.68;51.49;100006.66;2092896;28;989;-57
2021/11/07 03:09:15;;;;;;;;;;;;;;;21.67;50.48;100008.50;2092248;28;784;-58
2021/11/07 03:10:17;;;;;;;;;;;;;;;21.62;51.66;99999.78;2092432;28;862;-57
2021/11/07 03:11:18;;;;;;;;;;;;;;;21.61;51.83;99998.00;2092835;28;1286;-58
2021/11/07 03:12:19;;;;;;;;;;;;;;;21.59;52.17;99999.91;2092919;28;784;-57
2021/11/07 03:13:20;;;;;;;;;;;;;;;21.55;52.67;99995.59;2092838;28;1108;-58
2021/11/07 03:14:21;;;;;;;;;;;;;;;21.62;51.26;99995.25;2092767;28;1930;-57
2021/11/07 03:15:22;;;;;;;;;;;;;;;21.56;51.42;99989.28;2092907;28;848;-57
2021/11/07 03:16:22;;;;;;;;;;;;;;;21.53;51.46;99981.34;2092959;28;771;-57
2021/11/07 03:17:23;;;;;;;;;;;;;;;21.59;51.80;99991.81;2092501;28;1072;-57
2021/11/07 03:18:24;;;;;;;;;;;;;;;21.52;52.27;99975.06;2092833;28;827;-57
2021/11/07 03:19:25;;;;;;;;;;;;;;;21.60;51.66;99972.00;2092835;28;867;-57
2021/11/07 03:20:26;;;;;;;;;;;;;;;21.55;51.19;99974.06;2092639;28;932;-58
2021/11/07 03:21:26;;;;;;;;;;;;;;;21.57;51.30;99966.75;2092850;28;829;-57
2021/11/07 03:22:28;;;;;;;;;;;;;;;21.59;51.26;99964.84;2092707;28;851;-57
2021/11/07 03:23:28;;;;;;;;;;;;;;;21.58;51.45;99955.88;2092524;28;834;-57
2021/11/07 03:24:28;;;;;;;;;;;;;;;21.56;51.74;99954.25;2092734;28;800;-57
2021/11/07 03:25:28;;;;;;;;;;;;;;;21.60;51.49;99950.44;2092723;28;977;-57
2021/11/07 03:26:30;;;;;;;;;;;;;;;21.58;52.71;99947.81;2092746;28;802;-57
2021/11/07 03:27:34;;;;;;;;;;;;;;;21.61;51.58;99944.09;2092828;28;863;-57
2021/11/07 03:28:35;;;;;;;;;;;;;;;21.63;51.63;99942.22;2092743;28;851;-57
2021/11/07 03:29:35;;;;;;;;;;;;;;;21.50;53.13;99933.84;2092734;28;846;-58
2021/11/07 03:30:42;;;;;;;;;;;;;;;21.56;52.16;99932.69;2092655;28;857;-57
2021/11/07 03:32:48;;;;;;;;;;;;;;;21.57;52.28;99923.66;2092866;28;881;-57
2021/11/07 03:33:52;;;;;;;;;;;;;;;21.59;51.73;99925.28;2092645;28;822;-57
2021/11/07 03:34:57;;;;;;;;;;;;;;;21.60;52.10;99918.94;2092686;28;1981;-57
2021/11/07 03:36:00;;;;;;;;;;;;;;;21.60;51.45;99920.78;2092807;28;866;-57
2021/11/07 03:37:03;;;;;;;;;;;;;;;21.54;51.85;99921.09;2092607;28;918;-57
2021/11/07 03:38:03;;;;;;;;;;;;;;;21.57;51.42;99920.94;2087991;28;1181;-57
2021/11/07 03:39:03;;;;;;;;;;;;;;;21.60;51.53;99913.56;2084267;28;823;-57
2021/11/07 03:40:06;;;;;;;;;;;;;;;21.55;51.55;99909.38;2084329;28;1350;-57
2021/11/07 03:41:06;;;;;;;;;;;;;;;21.58;51.19;99909.22;2084394;28;1005;-57
2021/11/07 03:42:11;;;;;;;;;;;;;;;21.52;51.37;99912.22;2084355;28;830;-57
2021/11/07 03:43:11;;;;;;;;;;;;;;;21.59;50.72;99913.66;2084453;28;899;-58
2021/11/07 03:44:11;;;;;;;;;;;;;;;21.61;50.99;99914.44;2084534;28;774;-57
2021/11/07 03:45:12;;;;;;;;;;;;;;;21.58;52.64;99911.91;2084367;28;771;-57
2021/11/07 03:46:13;;;;;;;;;;;;;;;21.52;51.07;99914.94;2084358;28;771;-57
2021/11/07 03:47:13;;;;;;;;;;;;;;;21.56;52.49;99917.38;2084321;28;1036;-57
2021/11/07 03:48:13;;;;;;;;;;;;;;;21.60;50.96;99907.31;2083444;28;1051;-56
2021/11/07 03:49:14;;;;;;;;;;;;;;;21.61;51.27;99909.06;2083891;28;985;-57
2021/11/07 03:50:14;;;;;;;;;;;;;;;21.62;53.16;99908.13;2084316;28;827;-57
2021/11/07 03:51:15;;;;;;;;;;;;;;;21.58;51.19;99898.44;2084330;28;810;-57
2021/11/07 03:52:15;;;;;;;;;;;;;;;21.59;53.05;99906.44;2084261;28;803;-58
2021/11/07 03:53:16;;;;;;;;;;;;;;;21.52;52.61;99894.22;2084256;28;811;-57
2021/11/07 03:54:17;;;;;;;;;;;;;;;21.51;51.05;99889.78;2084251;28;1956;-57
2021/11/07 03:55:17;;;;;;;;;;;;;;;21.50;51.75;99896.13;2084185;28;784;-56
2021/11/07 03:56:17;;;;;;;;;;;;;;;21.53;53.01;99887.03;2083600;28;1526;-58
2021/11/07 03:57:18;;;;;;;;;;;;;;;21.54;51.14;99892.31;2083683;28;858;-57
2021/11/07 03:58:19;;;;;;;;;;;;;;;21.57;50.93;99885.91;2083981;28;851;-57
2021/11/07 03:59:19;;;;;;;;;;;;;;;21.58;52.23;99884.97;2084282;28;811;-57
2021/11/07 04:00:20;;;;;;;;;;;;;;;21.53;51.68;99887.03;2084315;28;768;-58
2021/11/07 04:01:20;;;;;;;;;;;;;;;21.51;51.27;99881.69;2084100;28;843;-57
2021/11/07 04:02:20;;;;;;;;;;;;;;;21.51;51.97;99881.69;2084225;28;1209;-57
2021/11/07 04:03:21;;;;;;;;;;;;;;;21.50;51.23;99879.09;2084355;28;877;-57
2021/11/07 04:04:21;;;;;;;;;;;;;;;21.52;51.80;99882.59;2084235;28;997;-57
2021/11/07 04:05:23;;;;;;;;;;;;;;;21.53;51.43;99878.94;2084244;28;989;-57
2021/11/07 04:06:24;;;;;;;;;;;;;;;21.58;52.19;99872.34;2084271;28;819;-57
2021/11/07 04:07:25;;;;;;;;;;;;;;;21.56;51.41;99868.84;2084261;28;870;-57
2021/11/07 04:08:25;;;;;;;;;;;;;;;21.52;52.25;99866.41;2084219;28;981;-57
2021/11/07 04:09:25;;;;;;;;;;;;;;;21.57;51.71;99869.75;2084248;28;914;-57
2021/11/07 04:10:25;;;;;;;;;;;;;;;21.56;51.74;99866.16;2084147;28;986;-57
2021/11/07 04:11:26;;;;;;;;;;;;;;;21.55;50.57;99867.13;2084172;28;692;-56
2021/11/07 04:12:26;;;;;;;;;;;;;;;21.53;50.54;99855.56;2084159;28;821;-57
2021/11/07 04:13:27;;;;;;;;;;;;;;;21.55;51.27;99866.25;2083989;28;915;-57
2021/11/07 04:14:33;;;;;;;;;;;;;;;21.54;51.95;99859.97;2084019;28;1918;-57
2021/11/07 04:15:34;;;;;;;;;;;;;;;21.44;52.16;99859.59;2084268;28;827;-57
2021/11/07 04:16:35;;;;;;;;;;;;;;;21.43;52.68;99859.72;2083986;28;1154;-57
2021/11/07 04:17:37;;;;;;;;;;;;;;;21.47;51.54;99858.59;2084169;28;858;-56
2021/11/07 04:18:38;;;;;;;;;;;;;;;21.49;50.80;99856.66;2084112;28;1207;-56
2021/11/07 04:19:38;;;;;;;;;;;;;;;21.53;53.06;99852.00;2084214;28;787;-57
2021/11/07 04:20:38;;;;;;;;;;;;;;;21.52;51.50;99855.66;2084184;28;845;-57
2021/11/07 04:21:41;;;;;;;;;;;;;;;21.52;53.17;99859.19;2084076;28;822;-57
2021/11/07 04:22:41;;;;;;;;;;;;;;;21.48;52.20;99850.41;2084090;28;810;-57
2021/11/07 04:23:42;;;;;;;;;;;;;;;21.46;51.30;99846.94;2084130;28;834;-57
2021/11/07 04:24:42;;;;;;;;;;;;;;;21.52;51.64;99852.94;2083981;28;1095;-56
2021/11/07 04:25:42;;;;;;;;;;;;;;;21.56;51.05;99846.44;2084183;28;838;-57
2021/11/07 04:26:42;;;;;;;;;;;;;;;21.55;51.58;99845.56;2083476;28;863;-57
2021/11/07 04:27:42;;;;;;;;;;;;;;;21.53;51.75;99844.78;2083981;28;847;-57
2021/11/07 04:28:43;;;;;;;;;;;;;;;21.52;51.37;99839.47;2084061;28;1191;-57
2021/11/07 04:29:43;;;;;;;;;;;;;;;21.46;52.36;99835.28;2084085;28;1144;-57
2021/11/07 04:30:44;;;;;;;;;;;;;;;21.49;52.78;99832.41;2084053;28;819;-57
2021/11/07 04:31:44;;;;;;;;;;;;;;;21.50;52.11;99833.28;2084066;28;803;-56
2021/11/07 04:32:44;;;;;;;;;;;;;;;21.47;52.79;99831.66;2084006;28;969;-57
2021/11/07 04:33:45;;;;;;;;;;;;;;;21.40;52.48;99824.84;2084083;28;844;-56
2021/11/07 04:34:45;;;;;;;;;;;;;;;21.46;51.91;99833.47;2083892;28;1894;-57
2021/11/07 04:35:45;;;;;;;;;;;;;;;21.49;52.33;99821.63;2084023;28;1044;-57
2021/11/07 04:36:45;;;;;;;;;;;;;;;21.50;52.80;99823.38;2083990;28;830;-57
2021/11/07 04:37:45;;;;;;;;;;;;;;;21.55;52.22;99825.84;2083969;28;1206;-57
2021/11/07 04:38:46;;;;;;;;;;;;;;;21.56;52.28;99827.59;2084035;28;763;-57
2021/11/07 04:39:46;;;;;;;;;;;;;;;21.50;52.63;99820.69;2083921;28;902;-57
2021/11/07 04:40:47;;;;;;;;;;;;;;;21.53;52.26;99817.81;2083943;28;862;-57
2021/11/07 04:41:48;;;;;;;;;;;;;;;21.57;51.63;99813.16;2084002;28;845;-57
2021/11/07 04:42:48;;;;;;;;;;;;;;;21.47;52.96;99813.66;2083612;28;822;-57
2021/11/07 04:43:48;;;;;;;;;;;;;;;21.48;51.13;99809.16;2083971;28;1044;-57
2021/11/07 04:44:48;;;;;;;;;;;;;;;21.53;51.86;99806.19;2083895;28;874;-57
2021/11/07 04:45:49;;;;;;;;;;;;;;;21.50;51.83;99806.34;2083733;28;822;-57
2021/11/07 04:46:50;;;;;;;;;;;;;;;21.48;52.26;99803.75;2083920;28;850;-57
2021/11/07 04:47:50;;;;;;;;;;;;;;;21.47;52.35;99805.56;2083308;28;843;-57
2021/11/07 04:48:50;;;;;;;;;;;;;;;21.48;52.52;99801.91;2083318;28;1021;-58
2021/11/07 04:49:53;;;;;;;;;;;;;;;21.46;52.30;99792.19;2083192;28;874;-56
2021/11/07 04:50:53;;;;;;;;;;;;;;;21.43;52.77;99789.66;2083262;28;826;-58
2021/11/07 04:51:54;;;;;;;;;;;;;;;21.47;51.57;99793.94;2083942;28;754;-57
2021/11/07 04:52:54;;;;;;;;;;;;;;;21.49;52.81;99792.00;2083778;28;819;-57
2021/11/07 04:53:54;;;;;;;;;;;;;;;21.54;51.72;99789.94;2083967;28;814;-57
2021/11/07 04:54:55;;;;;;;;;;;;;;;21.52;51.48;99786.44;2083795;28;1886;-57
2021/11/07 04:55:55;;;;;;;;;;;;;;;21.52;52.04;99788.28;2083808;28;795;-56
2021/11/07 04:56:56;;;;;;;;;;;;;;;21.51;52.26;99784.69;2083721;28;1213;-57
2021/11/07 04:57:56;;;;;;;;;;;;;;;21.53;52.88;99784.63;2083774;28;1238;-57
2021/11/07 04:58:57;;;;;;;;;;;;;;;21.43;52.46;99777.03;2083800;28;851;-56
2021/11/07 04:59:57;;;;;;;;;;;;;;;21.49;51.36;99781.22;2083391;28;799;-58
2021/11/07 05:00:57;;;;;;;;;;;;;;;21.44;52.25;99778.78;2083696;28;906;-57
2021/11/07 05:01:57;;;;;;;;;;;;;;;21.44;50.57;99781.47;2083870;28;867;-57
2021/11/07 05:02:58;;;;;;;;;;;;;;;21.46;52.02;99781.41;2083820;28;792;-57
2021/11/07 05:03:58;;;;;;;;;;;;;;;21.47;52.45;99775.94;2083696;28;854;-58
2021/11/07 05:04:59;;;;;;;;;;;;;;;22.10;51.01;99775.25;2083777;28;1044;-56
2021/11/07 05:05:59;;;;;;;;;;;;;;;22.52;49.09;99771.06;2083695;28;1033;-57
2021/11/07 05:06:59;;;;;;;;;;;;;;;22.73;48.33;99768.09;2083751;28;835;-57
2021/11/07 05:07:59;;;;;;;;;;;;;;;22.88;48.34;99766.28;2083778;28;796;-56
2021/11/07 05:09:00;;;;;;;;;;;;;;;22.97;47.66;99768.44;2083467;28;917;-57
2021/11/07 05:10:00;;;;;;;;;;;;;;;23.03;48.48;99761.78;2083723;28;869;-56
2021/11/07 05:11:01;;;;;;;;;;;;;;;23.11;48.77;99764.88;2083717;28;1346;-56
2021/11/07 05:12:01;;;;;;;;;;;;;;;23.17;46.39;99769.91;2083572;28;941;-56
2021/11/07 05:13:03;;;;;;;;;;;;;;;23.24;47.09;99763.22;2083758;28;803;-57
2021/11/07 05:14:03;;;;;;;;;;;;;;;23.31;47.28;99763.69;2083670;28;1973;-56
2021/11/07 05:15:04;;;;;;;;;;;;;;;23.38;47.14;99762.34;2083552;28;847;-57
2021/11/07 05:16:04;;;;;;;;;;;;;;;23.42;47.43;99759.47;2083061;28;867;-57
2021/11/07 05:17:04;;;;;;;;;;;;;;;23.46;48.14;99755.59;2083106;28;989;-57
2021/11/07 05:18:05;;;;;;;;;;;;;;;23.50;46.75;99757.16;2083586;28;819;-57
2021/11/07 05:19:05;;;;;;;;;;;;;;;23.56;46.82;99756.75;2083700;28;842;-58
2021/11/07 05:20:06;;;;;;;;;;;;;;;23.61;46.71;99751.94;2083674;28;803;-58
2021/11/07 05:21:06;;;;;;;;;;;;;;;23.60;46.69;99750.19;2083763;28;761;-56
2021/11/07 05:22:07;;;;;;;;;;;;;;;23.65;46.48;99748.06;2083667;28;816;-57
2021/11/07 05:23:07;;;;;;;;;;;;;;;23.71;46.27;99745.94;2083437;28;795;-55
2021/11/07 05:24:08;;;;;;;;;;;;;;;23.72;46.17;99745.00;2083644;28;985;-57
2021/11/07 05:25:10;;;;;;;;;;;;;;;23.76;45.66;99738.41;2083603;28;881;-57
2021/11/07 05:26:10;;;;;;;;;;;;;;;23.80;45.42;99742.66;2083571;28;890;-57
2021/11/07 05:27:10;;;;;;;;;;;;;;;23.81;47.39;99736.28;2083582;28;969;-58
2021/11/07 05:28:10;;;;;;;;;;;;;;;23.81;47.16;99734.44;2083661;28;831;-57
2021/11/07 05:29:11;;;;;;;;;;;;;;;23.81;46.48;99736.28;2083602;28;843;-58
2021/11/07 05:30:12;;;;;;;;;;;;;;;23.86;46.49;99733.28;2083476;28;973;-56
2021/11/07 05:31:12;;;;;;;;;;;;;;;23.84;46.87;99733.38;2083562;28;870;-57
2021/11/07 05:32:12;;;;;;;;;;;;;;;23.91;46.10;99733.84;2083574;28;783;-57
2021/11/07 05:33:14;;;;;;;;;;;;;;;23.95;47.13;99720.00;2083533;28;862;-57
2021/11/07 05:34:14;;;;;;;;;;;;;;;23.92;46.42;99725.63;2083570;28;1890;-57
2021/11/07 05:35:18;;;;;;;;;;;;;;;23.89;48.50;99725.81;2083638;28;854;-57
2021/11/07 05:36:18;;;;;;;;;;;;;;;23.96;46.53;99716.34;2083517;28;1164;-56
2021/11/07 05:37:18;;;;;;;;;;;;;;;24.02;45.54;99715.13;2083545;28;949;-56
2021/11/07 05:38:19;;;;;;;;;;;;;;;24.02;46.94;99715.13;2090129;28;1229;-57
2021/11/07 05:39:19;;;;;;;;;;;;;;;24.02;46.21;99714.22;2091760;28;834;-56
2021/11/07 05:40:20;;;;;;;;;;;;;;;24.07;46.84;99712.97;2091833;28;1036;-56
2021/11/07 05:41:20;;;;;;;;;;;;;;;24.15;45.79;99719.69;2091750;28;851;-56
2021/11/07 05:42:21;;;;;;;;;;;;;;;24.06;46.55;99711.25;2091728;28;981;-56
2021/11/07 05:43:23;;;;;;;;;;;;;;;24.07;45.87;99712.97;2091606;28;771;-55
2021/11/07 05:44:23;;;;;;;;;;;;;;;24.10;46.63;99710.06;2091745;28;815;-56
2021/11/07 05:45:24;;;;;;;;;;;;;;;24.22;46.09;99713.78;2091739;28;836;-56
2021/11/07 05:46:24;;;;;;;;;;;;;;;24.30;45.52;99705.16;2091686;28;980;-56
2021/11/07 05:47:24;;;;;;;;;;;;;;;24.31;47.73;99706.88;2091767;28;854;-56
2021/11/07 05:48:24;;;;;;;;;;;;;;;24.23;44.83;99709.22;2091646;28;773;-55
2021/11/07 05:49:24;;;;;;;;;;;;;;;24.30;47.61;99702.44;2091649;28;957;-55
2021/11/07 05:50:25;;;;;;;;;;;;;;;24.28;44.83;99705.28;2091696;28;779;-55
2021/11/07 05:51:25;;;;;;;;;;;;;;;24.22;46.60;99694.84;2091748;28;814;-56
2021/11/07 05:52:26;;;;;;;;;;;;;;;24.24;45.91;99700.16;2091634;28;962;-55
2021/11/07 05:53:27;;;;;;;;;;;;;;;24.22;45.63;99688.56;2091624;28;886;-56
2021/11/07 05:54:27;;;;;;;;;;;;;;;24.21;45.18;99690.41;2091586;28;1945;-56
2021/11/07 05:55:27;;;;;;;;;;;;;;;24.34;46.20;99687.72;2091640;28;701;-55
2021/11/07 05:56:28;;;;;;;;;;;;;;;24.31;45.30;99687.94;2091285;28;1236;-55